createdAt,value
2018-08-09T00:02:16.263Z,79.80
2018-08-09T00:04:46.695Z,80.00
2018-08-09T00:07:16.368Z,79.80
2018-08-09T00:09:46.062Z,79.70
2018-08-09T00:12:15.758Z,79.60
2018-08-09T00:14:45.403Z,80.00
2018-08-09T00:17:15.138Z,80.10
2018-08-09T00:19:44.818Z,80.10
2018-08-09T00:22:14.487Z,80.30
2018-08-09T00:24:44.207Z,80.00
2018-08-09T00:27:13.888Z,80.10
2018-08-09T00:29:43.628Z,79.90
2018-08-09T00:32:13.311Z,80.10
2018-08-09T00:34:43.091Z,80.90
2018-08-09T00:37:12.727Z,80.40
2018-08-09T00:39:42.428Z,80.50
2018-08-09T00:42:12.089Z,80.90
2018-08-09T00:44:42.227Z,80.80
2018-08-09T00:47:12.012Z,80.70
2018-08-09T00:49:41.734Z,81.00
2018-08-09T00:52:11.387Z,81.10
2018-08-09T00:54:41.121Z,81.00
2018-08-09T00:57:10.777Z,81.10
2018-08-09T00:59:40.467Z,81.10
2018-08-09T01:02:10.140Z,81.10
2018-08-09T01:04:39.904Z,81.20
2018-08-09T01:07:09.566Z,81.20
2018-08-09T01:09:39.360Z,81.70
2018-08-09T01:12:09.380Z,81.80
2018-08-09T01:14:39.526Z,81.70
2018-08-09T01:17:09.374Z,81.90
2018-08-09T01:19:39.154Z,81.80
2018-08-09T01:22:08.832Z,81.70
2018-08-09T01:24:38.525Z,81.80
2018-08-09T01:27:09.677Z,82.00
2018-08-09T01:29:40.739Z,82.00
2018-08-09T01:32:10.371Z,81.90
2018-08-09T01:34:40.085Z,81.90
2018-08-09T01:37:09.796Z,82.20
2018-08-09T01:39:39.507Z,82.30
2018-08-09T01:42:20.510Z,82.60
2018-08-09T01:44:50.213Z,83.20
2018-08-09T01:47:19.915Z,83.00
2018-08-09T01:49:49.580Z,83.10
2018-08-09T01:52:19.236Z,83.20
2018-08-09T01:54:48.957Z,83.30
2018-08-09T01:57:18.628Z,83.40
2018-08-09T01:59:48.306Z,83.30
2018-08-09T02:02:18.328Z,83.90
2018-08-09T02:04:48.056Z,84.30
2018-08-09T02:07:17.838Z,84.10
2018-08-09T02:09:47.526Z,83.80
2018-08-09T02:12:17.195Z,83.90
2018-08-09T02:14:46.900Z,83.80
2018-08-09T02:17:16.553Z,83.80
2018-08-09T02:19:46.630Z,84.00
2018-08-09T02:22:16.449Z,84.90
2018-08-09T02:24:46.305Z,84.20
2018-08-09T02:27:16.041Z,84.50
2018-08-09T02:29:45.774Z,85.20
2018-08-09T02:32:15.495Z,85.10
2018-08-09T02:34:45.454Z,84.70
2018-08-09T02:37:15.158Z,84.30
2018-08-09T02:39:45.078Z,83.80
2018-08-09T02:42:14.852Z,84.30
2018-08-09T02:44:44.570Z,84.70
2018-08-09T02:47:14.925Z,85.00
2018-08-09T02:49:44.704Z,85.50
2018-08-09T02:52:14.424Z,85.80
2018-08-09T02:54:44.228Z,85.80
2018-08-09T02:57:14.372Z,85.80
2018-08-09T02:59:44.638Z,86.30
2018-08-09T03:02:15.133Z,86.10
2018-08-09T03:04:44.923Z,86.00
2018-08-09T03:07:14.625Z,85.70
2018-08-09T03:09:44.377Z,86.00
2018-08-09T03:12:14.138Z,86.00
2018-08-09T03:14:43.825Z,85.80
2018-08-09T03:17:13.532Z,85.90
2018-08-09T03:19:43.374Z,85.70
2018-08-09T03:22:13.087Z,85.70
2018-08-09T03:24:42.766Z,85.80
2018-08-09T03:27:12.833Z,86.00
2018-08-09T03:29:42.499Z,85.80
2018-08-09T03:32:12.198Z,86.40
2018-08-09T03:34:41.867Z,86.40
2018-08-09T03:37:11.572Z,86.60
2018-08-09T03:39:41.240Z,86.50
2018-08-09T03:42:10.971Z,86.40
2018-08-09T03:44:40.679Z,86.70
2018-08-09T03:47:10.430Z,87.00
2018-08-09T03:49:40.148Z,86.80
2018-08-09T03:52:09.899Z,86.80
2018-08-09T03:54:39.750Z,86.60
2018-08-09T03:57:09.435Z,87.00
2018-08-09T03:59:39.131Z,86.60
2018-08-09T04:02:08.827Z,86.50
2018-08-09T04:04:38.487Z,86.90
2018-08-09T04:07:08.216Z,86.70
2018-08-09T04:09:37.932Z,86.70
2018-08-09T04:12:07.723Z,87.10
2018-08-09T04:14:37.536Z,87.50
2018-08-09T04:17:12.434Z,87.20
2018-08-09T04:19:42.084Z,87.10
2018-08-09T04:22:11.742Z,86.90
2018-08-09T04:24:41.433Z,86.70
2018-08-09T04:27:11.186Z,86.70
2018-08-09T04:29:41.001Z,86.80
2018-08-09T04:32:10.764Z,86.60
2018-08-09T04:34:40.507Z,86.00
2018-08-09T04:37:10.178Z,86.20
2018-08-09T04:39:40.178Z,86.40
2018-08-09T04:42:09.945Z,86.30
2018-08-09T04:44:39.671Z,86.10
2018-08-09T04:47:15.014Z,86.30
2018-08-09T04:49:44.679Z,86.20
2018-08-09T04:52:14.359Z,86.50
2018-08-09T04:54:44.051Z,86.70
2018-08-09T04:57:13.802Z,86.80
2018-08-09T04:59:43.524Z,87.00
2018-08-09T05:02:13.246Z,86.40
2018-08-09T05:04:42.904Z,86.40
2018-08-09T05:07:12.579Z,86.00
2018-08-09T05:09:42.263Z,86.00
2018-08-09T05:12:11.971Z,85.90
2018-08-09T05:14:41.702Z,86.20
2018-08-09T05:17:11.433Z,85.40
2018-08-09T05:19:41.136Z,86.00
2018-08-09T05:22:10.843Z,85.50
2018-08-09T05:24:40.592Z,85.30
2018-08-09T05:27:10.326Z,85.00
2018-08-09T05:29:40.010Z,85.60
2018-08-09T05:32:09.747Z,85.40
2018-08-09T05:34:39.419Z,85.20
2018-08-09T05:37:09.110Z,85.60
2018-08-09T05:39:38.834Z,85.30
2018-08-09T05:42:08.563Z,85.10
2018-08-09T05:44:38.278Z,85.30
2018-08-09T05:47:11.982Z,85.30
2018-08-09T05:49:41.687Z,85.70
2018-08-09T05:52:11.590Z,85.00
2018-08-09T05:54:41.275Z,85.10
2018-08-09T05:57:10.999Z,84.30
2018-08-09T05:59:40.820Z,84.90
2018-08-09T06:02:10.518Z,84.70
2018-08-09T06:04:40.301Z,83.20
2018-08-09T06:07:09.995Z,82.20
2018-08-09T06:09:39.694Z,80.90
2018-08-09T06:12:09.355Z,79.80
2018-08-09T06:14:39.068Z,79.60
2018-08-09T06:17:08.815Z,78.80
2018-08-09T06:19:38.471Z,78.60
2018-08-09T06:22:08.490Z,79.60
2018-08-09T06:24:38.198Z,78.50
2018-08-09T06:27:07.959Z,78.40
2018-08-09T06:29:38.029Z,77.80
2018-08-09T06:32:08.439Z,77.00
2018-08-09T06:34:38.474Z,77.20
2018-08-09T06:37:08.792Z,76.20
2018-08-09T06:39:38.479Z,75.60
2018-08-09T06:42:08.807Z,74.10
2018-08-09T06:44:38.818Z,73.90
2018-08-09T06:47:08.539Z,73.80
2018-08-09T06:49:38.758Z,72.40
2018-08-09T06:52:08.763Z,69.50
2018-08-09T06:54:38.527Z,68.40
2018-08-09T06:57:08.304Z,67.60
2018-08-09T06:59:38.718Z,67.90
2018-08-09T07:02:08.872Z,67.90
2018-08-09T07:04:38.657Z,67.50
2018-08-09T07:07:08.480Z,67.20
2018-08-09T07:09:38.199Z,66.70
2018-08-09T07:12:07.983Z,66.80
2018-08-09T07:14:37.739Z,66.70
2018-08-09T07:17:07.818Z,67.20
2018-08-09T07:19:37.563Z,65.30
2018-08-09T07:22:07.367Z,64.10
2018-08-09T07:24:37.164Z,64.20
2018-08-09T07:27:06.834Z,63.70
2018-08-09T07:29:36.810Z,64.50
2018-08-09T07:32:06.630Z,63.60
2018-08-09T07:34:36.352Z,64.80
2018-08-09T07:37:06.075Z,64.50
2018-08-09T07:39:35.816Z,64.00
2018-08-09T07:42:06.054Z,65.20
2018-08-09T07:44:35.726Z,62.90
2018-08-09T07:47:05.382Z,62.10
2018-08-09T07:49:35.113Z,62.80
2018-08-09T07:52:05.155Z,62.20
2018-08-09T07:54:34.851Z,63.20
2018-08-09T07:57:04.596Z,63.20
2018-08-09T07:59:34.558Z,62.70
2018-08-09T08:02:04.610Z,63.40
2018-08-09T08:04:34.330Z,59.50
2018-08-09T08:07:03.857Z,61.20
2018-08-09T08:09:33.584Z,60.40
2018-08-09T08:12:03.300Z,60.40
2018-08-09T08:14:33.036Z,57.40
2018-08-09T08:17:02.459Z,57.70
2018-08-09T08:19:31.866Z,56.00
2018-08-09T08:22:01.607Z,57.20
2018-08-09T08:24:31.355Z,58.60
2018-08-09T08:27:01.136Z,60.50
2018-08-09T08:29:30.860Z,59.90
2018-08-09T08:32:00.232Z,60.10
2018-08-09T08:34:30.103Z,59.30
2018-08-09T08:36:59.699Z,59.90
2018-08-09T08:39:29.419Z,57.90
2018-08-09T08:41:58.876Z,56.70
2018-08-09T08:44:28.261Z,56.10
2018-08-09T08:46:57.712Z,55.50
2018-08-09T08:49:27.177Z,51.90
2018-08-09T08:51:56.586Z,53.80
2018-08-09T08:54:26.028Z,53.60
2018-08-09T08:56:55.428Z,52.70
2018-08-09T08:59:24.870Z,51.50
2018-08-09T09:01:54.241Z,52.10
2018-08-09T09:04:23.771Z,51.40
2018-08-09T09:06:53.650Z,50.00
2018-08-09T09:09:23.602Z,51.10
2018-08-09T09:11:53.408Z,51.60
2018-08-09T09:14:23.147Z,50.10
2018-08-09T09:16:52.875Z,49.20
2018-08-09T09:19:22.750Z,48.50
2018-08-09T09:21:52.570Z,49.40
2018-08-09T09:24:22.287Z,48.80
2018-08-09T09:26:52.033Z,49.00
2018-08-09T09:29:21.831Z,49.30
2018-08-09T09:31:51.230Z,49.80
2018-08-09T09:34:20.930Z,50.60
2018-08-09T09:36:51.034Z,49.20
2018-08-09T09:39:20.947Z,49.70
2018-08-09T09:41:50.734Z,48.50
2018-08-09T09:44:20.096Z,49.10
2018-08-09T09:46:49.927Z,49.90
2018-08-09T09:49:19.403Z,51.00
2018-08-09T09:51:48.832Z,51.30
2018-08-09T09:54:18.591Z,51.30
2018-08-09T09:56:48.014Z,51.20
2018-08-09T09:59:17.414Z,50.40
2018-08-09T10:01:46.854Z,49.90
2018-08-09T10:04:16.403Z,50.20
2018-08-09T10:06:46.190Z,50.40
2018-08-09T10:09:16.581Z,51.00
2018-08-09T10:11:46.011Z,50.90
2018-08-09T10:14:15.410Z,50.30
2018-08-09T10:16:44.782Z,50.90
2018-08-09T10:19:14.223Z,49.70
2018-08-09T10:21:43.948Z,50.20
2018-08-09T10:24:13.840Z,48.90
2018-08-09T10:26:43.614Z,46.00
2018-08-09T10:29:13.313Z,46.70
2018-08-09T10:31:42.882Z,46.90
2018-08-09T10:34:12.844Z,47.10
2018-08-09T10:36:42.746Z,47.10
2018-08-09T10:39:12.641Z,46.50
2018-08-09T10:41:42.067Z,47.60
2018-08-09T10:44:11.427Z,47.40
2018-08-09T10:46:41.226Z,46.80
2018-08-09T10:49:10.573Z,46.50
2018-08-09T10:51:39.963Z,48.00
2018-08-09T10:54:09.348Z,47.00
2018-08-09T10:56:38.786Z,46.80
2018-08-09T10:59:08.190Z,47.20
2018-08-09T11:01:37.643Z,46.70
2018-08-09T11:04:07.231Z,46.70
2018-08-09T11:06:36.663Z,47.20
2018-08-09T11:09:08.874Z,48.90
2018-08-09T11:11:38.241Z,47.70
2018-08-09T11:14:07.679Z,47.80
2018-08-09T11:16:37.090Z,47.10
2018-08-09T11:19:06.812Z,46.30
2018-08-09T11:21:36.230Z,45.70
2018-08-09T11:24:05.672Z,46.40
2018-08-09T11:26:35.060Z,45.90
2018-08-09T11:29:04.862Z,45.10
2018-08-09T11:31:34.265Z,44.10
2018-08-09T11:34:04.325Z,44.00
2018-08-09T11:36:33.886Z,44.90
2018-08-09T11:39:13.915Z,41.80
2018-08-09T11:41:44.414Z,42.60
2018-08-09T11:44:13.819Z,42.70
2018-08-09T11:46:43.180Z,41.80
2018-08-09T11:49:12.605Z,41.70
2018-08-09T11:51:41.970Z,44.00
2018-08-09T11:54:11.364Z,41.70
2018-08-09T11:56:40.809Z,42.70
2018-08-09T11:59:10.299Z,41.00
2018-08-09T12:01:39.913Z,42.60
2018-08-09T12:04:25.443Z,42.80
2018-08-09T12:06:56.995Z,40.50
2018-08-09T12:09:26.390Z,41.30
2018-08-09T12:11:56.298Z,40.10
2018-08-09T12:14:25.679Z,42.00
2018-08-09T12:16:55.028Z,42.20
2018-08-09T12:19:26.062Z,40.80
2018-08-09T12:22:04.401Z,40.10
2018-08-09T12:24:38.964Z,40.60
2018-08-09T12:27:09.316Z,40.10
2018-08-09T12:29:39.190Z,41.10
2018-08-09T12:32:08.649Z,39.90
2018-08-09T12:34:38.052Z,41.50
2018-08-09T12:37:07.543Z,41.10
2018-08-09T12:39:38.544Z,40.10
2018-08-09T12:42:08.057Z,40.70
2018-08-09T12:44:37.553Z,41.40
2018-08-09T12:47:07.366Z,40.60
2018-08-09T12:49:37.043Z,41.00
2018-08-09T12:52:07.163Z,41.70
2018-08-09T12:54:38.995Z,40.20
2018-08-09T12:57:08.604Z,40.30
2018-08-09T12:59:38.016Z,40.30
2018-08-09T13:02:07.708Z,41.90
2018-08-09T13:04:37.847Z,39.60
2018-08-09T13:07:07.859Z,39.90
2018-08-09T13:09:38.107Z,39.90
2018-08-09T13:12:07.548Z,39.20
2018-08-09T13:14:37.054Z,37.30
2018-08-09T13:17:09.197Z,38.50
2018-08-09T13:19:39.303Z,35.90
2018-08-09T13:22:09.042Z,36.90
2018-08-09T13:24:38.502Z,36.40
2018-08-09T13:27:08.370Z,35.30
2018-08-09T13:29:37.756Z,37.70
2018-08-09T13:32:07.136Z,37.50
2018-08-09T13:34:37.244Z,36.70
2018-08-09T13:37:06.783Z,37.80
2018-08-09T13:39:36.287Z,36.80
2018-08-09T13:42:05.722Z,37.50
2018-08-09T13:44:35.092Z,38.50
2018-08-09T13:47:04.872Z,36.80
2018-08-09T13:49:34.339Z,36.50
2018-08-09T13:52:03.784Z,35.30
2018-08-09T13:54:33.148Z,34.30
2018-08-09T13:57:02.540Z,36.80
2018-08-09T13:59:31.946Z,35.60
2018-08-09T14:02:01.336Z,35.80
2018-08-09T14:04:31.111Z,35.90
2018-08-09T14:07:00.514Z,35.70
2018-08-09T14:09:29.920Z,34.50
2018-08-09T14:11:59.319Z,34.50
2018-08-09T14:14:29.059Z,35.30
2018-08-09T14:16:58.524Z,36.40
2018-08-09T14:19:28.242Z,35.60
2018-08-09T14:21:57.579Z,35.10
2018-08-09T14:24:27.393Z,42.20
2018-08-09T14:26:57.254Z,45.10
2018-08-09T14:29:26.609Z,46.30
2018-08-09T14:31:56.652Z,47.50
2018-08-09T14:34:26.598Z,48.00
2018-08-09T14:36:56.030Z,48.90
2018-08-09T14:39:25.455Z,49.80
2018-08-09T14:41:55.025Z,50.70
2018-08-09T14:44:24.946Z,51.40
2018-08-09T14:46:54.358Z,51.90
2018-08-09T14:49:24.038Z,52.50
2018-08-09T14:51:53.456Z,53.10
2018-08-09T14:54:22.824Z,52.80
2018-08-09T14:56:52.482Z,53.60
2018-08-09T14:59:21.879Z,53.90
2018-08-09T15:01:51.922Z,54.70
2018-08-09T15:04:21.310Z,55.10
2018-08-09T15:06:50.699Z,55.20
2018-08-09T15:09:20.383Z,55.30
2018-08-09T15:11:50.452Z,55.10
2018-08-09T15:14:19.832Z,55.00
2018-08-09T15:16:49.522Z,54.50
2018-08-09T15:19:18.922Z,54.60
2018-08-09T15:21:48.684Z,54.20
2018-08-09T15:24:18.432Z,53.80
2018-08-09T15:26:48.151Z,52.20
2018-08-09T15:29:17.504Z,51.70
2018-08-09T15:31:46.911Z,51.50
2018-08-09T15:34:16.274Z,52.20
2018-08-09T15:36:46.307Z,52.20
2018-08-09T15:39:16.295Z,51.80
2018-08-09T15:41:45.958Z,52.70
2018-08-09T15:44:15.626Z,52.90
2018-08-09T15:46:45.038Z,52.30
2018-08-09T15:49:14.738Z,52.20
2018-08-09T15:51:44.766Z,52.90
2018-08-09T15:54:14.394Z,53.10
2018-08-09T15:56:44.124Z,52.90
2018-08-09T15:59:13.741Z,53.10
2018-08-09T16:01:43.433Z,54.00
2018-08-09T16:04:13.106Z,53.90
2018-08-09T16:06:42.795Z,53.80
2018-08-09T16:09:16.011Z,53.40
2018-08-09T16:11:45.822Z,53.60
2018-08-09T16:14:15.507Z,53.90
2018-08-09T16:16:45.184Z,53.60
2018-08-09T16:19:14.850Z,53.00
2018-08-09T16:21:45.175Z,53.20
2018-08-09T16:24:15.190Z,52.60
2018-08-09T16:26:45.199Z,52.50
2018-08-09T16:29:15.198Z,52.30
2018-08-09T16:31:44.927Z,53.20
2018-08-09T16:34:14.582Z,53.10
2018-08-09T16:36:44.327Z,53.20
2018-08-09T16:39:14.976Z,53.10
2018-08-09T16:41:44.707Z,53.00
2018-08-09T16:44:14.444Z,53.50
2018-08-09T16:46:44.180Z,53.50
2018-08-09T16:49:13.851Z,53.70
2018-08-09T16:51:44.951Z,53.90
2018-08-09T16:54:14.616Z,54.00
2018-08-09T16:56:44.307Z,54.10
2018-08-09T16:59:14.016Z,53.90
2018-08-09T17:01:43.762Z,54.30
2018-08-09T17:04:13.463Z,54.50
2018-08-09T17:06:43.186Z,54.70
2018-08-09T17:09:14.474Z,54.80
2018-08-09T17:11:45.269Z,54.70
2018-08-09T17:14:16.242Z,55.10
2018-08-09T17:16:46.819Z,55.10
2018-08-09T17:19:17.029Z,55.40
2018-08-09T17:21:48.566Z,55.60
2018-08-09T17:24:18.210Z,55.90
2018-08-09T17:26:48.275Z,56.00
2018-08-09T17:29:17.920Z,56.30
2018-08-09T17:31:47.698Z,56.50
2018-08-09T17:34:17.508Z,56.70
2018-08-09T17:36:47.522Z,56.70
2018-08-09T17:39:17.289Z,56.80
2018-08-09T17:41:47.340Z,56.90
2018-08-09T17:44:17.392Z,56.90
2018-08-09T17:46:47.667Z,57.10
2018-08-09T17:49:17.415Z,57.20
2018-08-09T17:51:47.499Z,57.40
2018-08-09T17:54:17.175Z,57.60
2018-08-09T17:56:51.276Z,58.00
2018-08-09T17:59:21.289Z,57.90
2018-08-09T18:01:51.138Z,58.10
2018-08-09T18:04:20.902Z,58.50
2018-08-09T18:06:50.706Z,58.60
2018-08-09T18:09:21.594Z,59.10
2018-08-09T18:11:51.912Z,59.50
2018-08-09T18:14:21.598Z,59.10
2018-08-09T18:16:51.486Z,55.10
2018-08-09T18:19:21.251Z,53.40
2018-08-09T18:21:50.937Z,52.80
2018-08-09T18:24:20.674Z,52.60
2018-08-09T18:26:51.228Z,53.80
2018-08-09T18:29:20.984Z,55.10
2018-08-09T18:31:51.154Z,56.00
2018-08-09T18:34:20.951Z,56.20
2018-08-09T18:36:51.293Z,57.80
2018-08-09T18:39:21.046Z,57.60
2018-08-09T18:41:51.083Z,59.10
2018-08-09T18:44:21.146Z,60.60
2018-08-09T18:46:51.021Z,63.10
2018-08-09T18:49:22.045Z,63.60
2018-08-09T18:51:54.705Z,65.40
2018-08-09T18:54:31.108Z,66.10
2018-08-09T18:57:01.038Z,67.90
2018-08-09T18:59:30.872Z,68.60
2018-08-09T19:02:00.967Z,69.00
2018-08-09T19:04:36.114Z,69.30
2018-08-09T19:07:07.066Z,69.40
2018-08-09T19:09:38.004Z,70.20
2018-08-09T19:12:11.046Z,69.60
2018-08-09T19:14:41.180Z,70.10
2018-08-09T19:17:11.502Z,70.80
2018-08-09T19:19:41.166Z,70.70
2018-08-09T19:22:10.790Z,71.50
2018-08-09T19:24:42.974Z,71.00
2018-08-09T19:27:23.916Z,70.70
2018-08-09T19:29:53.745Z,70.00
2018-08-09T19:32:23.856Z,70.30
2018-08-09T19:34:54.397Z,70.50
2018-08-09T19:37:29.394Z,70.40
2018-08-09T19:40:01.258Z,70.60
2018-08-09T19:42:32.779Z,70.80
2018-08-09T19:45:04.515Z,71.10
2018-08-09T19:47:43.708Z,71.00
2018-08-09T19:50:16.167Z,71.00
2018-08-09T19:52:46.198Z,70.50
2018-08-09T19:55:17.588Z,70.40
2018-08-09T19:57:48.274Z,69.90
2018-08-09T20:00:21.376Z,70.00
2018-08-09T20:02:51.890Z,69.60
2018-08-09T20:05:21.937Z,69.40
2018-08-09T20:07:54.179Z,69.20
2018-08-09T20:10:24.234Z,69.40
2018-08-09T20:12:54.269Z,69.80
2018-08-09T20:15:26.857Z,69.90
2018-08-09T20:17:56.650Z,70.40
2018-08-09T20:20:27.427Z,70.40
2018-08-09T20:22:57.445Z,70.70
2018-08-09T20:25:27.299Z,71.10
2018-08-09T20:27:57.034Z,72.00
2018-08-09T20:30:28.691Z,72.20
2018-08-09T20:32:58.782Z,72.00
2018-08-09T20:35:28.439Z,72.00
2018-08-09T20:37:58.183Z,72.40
2018-08-09T20:40:27.856Z,72.50
2018-08-09T20:42:57.917Z,72.40
2018-08-09T20:45:27.628Z,72.40
2018-08-09T20:47:58.457Z,72.30
2018-08-09T20:50:28.797Z,72.50
2018-08-09T20:52:58.431Z,72.20
2018-08-09T20:55:28.864Z,72.30
2018-08-09T20:57:59.134Z,72.60
2018-08-09T21:00:30.488Z,72.60
2018-08-09T21:03:00.899Z,72.50
2018-08-09T21:05:35.160Z,72.50
2018-08-09T21:08:07.360Z,72.40
2018-08-09T21:10:37.075Z,72.20
2018-08-09T21:13:06.822Z,72.00
2018-08-09T21:15:36.981Z,71.70
2018-08-09T21:18:07.019Z,71.70
2018-08-09T21:20:36.709Z,71.70
2018-08-09T21:23:06.756Z,72.00
2018-08-09T21:25:39.290Z,72.00
2018-08-09T21:28:09.673Z,71.90
2018-08-09T21:30:39.511Z,71.90
2018-08-09T21:33:09.243Z,72.20
2018-08-09T21:35:39.287Z,72.40
2018-08-09T21:38:09.460Z,72.70
2018-08-09T21:40:42.261Z,72.80
2018-08-09T21:43:13.403Z,73.10
2018-08-09T21:45:43.109Z,73.40
2018-08-09T21:48:13.096Z,73.50
2018-08-09T21:50:43.087Z,73.50
2018-08-09T21:53:13.107Z,73.80
2018-08-09T21:55:43.186Z,73.80
2018-08-09T21:58:12.881Z,74.00
2018-08-09T22:00:51.775Z,73.90
2018-08-09T22:03:24.134Z,74.40
2018-08-09T22:05:59.467Z,74.60
2018-08-09T22:08:35.454Z,74.40
2018-08-09T22:11:11.851Z,74.70
2018-08-09T22:13:48.699Z,74.50
2018-08-09T22:16:23.838Z,74.30
2018-08-09T22:18:59.134Z,74.20
2018-08-09T22:21:34.075Z,74.30
2018-08-09T22:24:03.810Z,74.20
2018-08-09T22:26:33.862Z,74.40
2018-08-09T22:29:03.555Z,74.40
2018-08-09T22:31:33.271Z,74.20
2018-08-09T22:34:03.288Z,74.30
2018-08-09T22:36:33.291Z,74.00
2018-08-09T22:39:03.023Z,75.20
2018-08-09T22:41:33.104Z,74.60
2018-08-09T22:44:02.798Z,74.50
2018-08-09T22:46:32.828Z,74.70
2018-08-09T22:49:02.566Z,74.70
2018-08-09T22:51:32.545Z,74.40
2018-08-09T22:54:02.242Z,74.40
2018-08-09T22:56:31.985Z,74.80
2018-08-09T22:59:01.696Z,74.90
2018-08-09T23:01:31.383Z,74.70
2018-08-09T23:04:01.059Z,74.60
2018-08-09T23:06:31.326Z,74.50
2018-08-09T23:09:01.019Z,74.70
2018-08-09T23:11:30.669Z,74.50
2018-08-09T23:14:00.683Z,74.50
2018-08-09T23:16:30.324Z,75.00
2018-08-09T23:18:59.995Z,75.00
2018-08-09T23:21:30.035Z,75.10
2018-08-09T23:23:59.790Z,75.20
2018-08-09T23:26:29.458Z,75.00
2018-08-09T23:28:59.170Z,75.30
2018-08-09T23:31:28.806Z,75.10
2018-08-09T23:34:38.690Z,75.20
2018-08-09T23:37:08.350Z,74.80
2018-08-09T23:39:38.025Z,75.00
2018-08-09T23:42:07.743Z,74.90
2018-08-09T23:44:37.734Z,74.80
2018-08-09T23:47:07.393Z,74.90
2018-08-09T23:49:37.063Z,74.90
2018-08-09T23:52:06.798Z,75.10
2018-08-09T23:54:36.454Z,75.00
2018-08-09T23:57:06.813Z,75.00
2018-08-09T23:59:36.486Z,75.30
